Time;durP1;ratioP1;P1;durP2;ratioP2;P2;SDS_P1;SDS_P2;PMS_P1;PMS_P2;Temp;Humidity;BMP_temperature;BMP_pressure;BME280_temperature;BME280_humidity;BME280_pressure;Samples;Min_cycle;Max_cycle;Signal;HPM_P1;HPM_P2
2024/02/12 00:03:41;;;;;;;3.53;2.20;;;;;;;6.41;100.00;96786.44;15301089;19;20018;-50
2024/02/12 00:09:06;;;;;;;2.97;1.98;;;;;;;6.44;100.00;96791.44;15290910;19;20014;-50
2024/02/12 00:14:34;;;;;;;2.95;2.10;;;;;;;6.47;100.00;96785.75;15302124;19;20018;-51
2024/02/12 00:19:58;;;;;;;3.05;1.80;;;;;;;6.46;100.00;96797.47;15289449;19;20082;-52
2024/02/12 00:25:24;;;;;;;1.92;1.58;;;;;;;6.48;100.00;96798.13;15288975;19;20021;-50
2024/02/12 00:30:51;;;;;;;4.03;1.90;;;;;;;6.50;100.00;96797.13;15280551;19;20028;-53
2024/02/12 00:36:17;;;;;;;2.83;1.60;;;;;;;6.46;100.00;96797.47;15285406;19;20018;-50
2024/02/12 00:41:41;;;;;;;4.70;1.60;;;;;;;6.45;100.00;96801.16;15285827;19;20039;-52
2024/02/12 00:47:09;;;;;;;2.08;1.40;;;;;;;6.47;100.00;96814.34;15033179;19;5001676;-50
2024/02/12 00:52:37;;;;;;;3.75;1.40;;;;;;;6.51;100.00;96809.50;15292901;19;20025;-53
2024/02/12 00:58:03;;;;;;;3.78;1.45;;;;;;;6.56;100.00;96809.78;15287258;19;20025;-50
2024/02/12 01:03:31;;;;;;;2.97;1.35;;;;;;;6.58;100.00;96815.81;15288612;19;20033;-53
2024/02/12 01:08:57;;;;;;;2.45;1.10;;;;;;;6.57;100.00;96816.81;15279234;19;20747;-53
2024/02/12 01:14:28;;;;;;;2.60;1.15;;;;;;;6.55;100.00;96825.03;15285293;19;20015;-51
2024/02/12 01:19:56;;;;;;;1.53;1.10;;;;;;;6.55;100.00;96824.16;15277209;19;20018;-53
2024/02/12 01:25:21;;;;;;;1.70;1.27;;;;;;;6.52;100.00;96828.03;15286297;19;20314;-50
2024/02/12 01:30:46;;;;;;;2.28;1.38;;;;;;;6.51;100.00;96822.88;15287877;19;20054;-50
2024/02/12 01:36:14;;;;;;;2.85;1.50;;;;;;;6.46;100.00;96810.84;15286314;19;20086;-50
2024/02/12 01:41:42;;;;;;;3.15;1.40;;;;;;;6.47;100.00;96825.03;15289899;19;20054;-50
2024/02/12 01:47:07;;;;;;;1.80;1.27;;;;;;;6.52;100.00;96829.88;15283989;19;20020;-51
2024/02/12 01:52:48;;;;;;;3.05;1.30;;;;;;;6.52;100.00;96832.56;15288055;19;20018;-50
2024/02/12 01:58:12;;;;;;;1.93;1.40;;;;;;;6.46;100.00;96821.53;15284594;19;20024;-53
2024/02/12 02:03:39;;;;;;;2.08;1.33;;;;;;;6.43;100.00;96821.88;15293238;19;20243;-52
2024/02/12 02:09:07;;;;;;;2.03;1.30;;;;;;;6.38;100.00;96823.41;15281299;19;20042;-50
2024/02/12 02:14:38;;;;;;;3.70;1.20;;;;;;;6.30;100.00;96826.97;15290978;19;20018;-49
2024/02/12 02:20:07;;;;;;;3.20;1.40;;;;;;;6.18;100.00;96810.47;15284393;19;20022;-50
2024/02/12 02:25:34;;;;;;;2.20;1.40;;;;;;;6.11;100.00;96818.34;15283436;19;20310;-51
2024/02/12 02:30:59;;;;;;;3.88;1.67;;;;;;;6.06;100.00;96815.34;15281268;19;20021;-52
2024/02/12 02:36:23;;;;;;;2.80;1.60;;;;;;;6.04;100.00;96822.72;15286233;19;20090;-51
2024/02/12 02:41:51;;;;;;;2.35;1.60;;;;;;;6.04;100.00;96821.88;15281199;19;20025;-51
2024/02/12 02:47:16;;;;;;;2.30;1.52;;;;;;;6.05;100.00;96828.91;15278518;19;20025;-52
2024/02/12 02:52:41;;;;;;;2.33;1.40;;;;;;;6.04;100.00;96832.56;15285866;19;20090;-50
2024/02/12 02:58:08;;;;;;;1.88;1.38;;;;;;;6.02;100.00;96846.13;15280094;19;20018;-49
2024/02/12 03:03:33;;;;;;;4.15;1.50;;;;;;;5.99;100.00;96844.63;15290606;19;20025;-53
2024/02/12 03:08:58;;;;;;;1.42;0.90;;;;;;;5.99;100.00;96849.09;15294797;19;20023;-51
2024/02/12 03:14:32;;;;;;;2.55;1.08;;;;;;;5.93;100.00;96849.78;15293402;19;20023;-50
2024/02/12 03:19:57;;;;;;;1.13;0.57;;;;;;;5.94;100.00;96849.63;15292836;19;20022;-50
2024/02/12 03:25:21;;;;;;;2.72;0.90;;;;;;;5.90;100.00;96850.13;15296310;19;20035;-50
2024/02/12 03:30:49;;;;;;;3.30;1.00;;;;;;;5.79;100.00;96841.47;15293994;19;20024;-49
2024/02/12 03:36:15;;;;;;;1.60;0.90;;;;;;;5.77;100.00;96846.16;15294522;19;20011;-50
2024/02/12 03:41:40;;;;;;;1.52;1.00;;;;;;;5.77;100.00;96853.31;15298628;19;20494;-49
2024/02/12 03:47:08;;;;;;;1.55;1.00;;;;;;;5.74;100.00;96854.50;15293956;19;20019;-51
2024/02/12 04:03:50;;;;;;;2.10;1.00;;;;;;;5.80;100.00;96875.22;15296825;19;20772;-49
2024/02/12 04:09:14;;;;;;;2.30;1.10;;;;;;;5.95;100.00;96890.53;15293650;19;20040;-50
2024/02/12 04:14:45;;;;;;;1.98;1.10;;;;;;;5.93;100.00;96879.19;15299536;19;20022;-51
2024/02/12 04:20:17;;;;;;;2.00;1.00;;;;;;;5.88;100.00;96884.19;15292226;19;20081;-49
2024/02/12 04:25:42;;;;;;;1.05;0.80;;;;;;;5.85;100.00;96882.72;15301864;19;20022;-52
2024/02/12 04:31:07;;;;;;;2.03;0.90;;;;;;;5.77;100.00;96885.38;15284229;19;20031;-51
2024/02/12 04:36:36;;;;;;;1.08;0.80;;;;;;;5.65;100.00;96882.22;15297949;19;20010;-50
2024/02/12 04:42:01;;;;;;;1.30;0.80;;;;;;;5.51;100.00;96875.72;15301233;19;20015;-49
2024/02/12 04:47:25;;;;;;;2.28;1.00;;;;;;;5.43;100.00;96884.56;15293375;19;20029;-49
2024/02/12 04:52:53;;;;;;;1.98;0.90;;;;;;;5.34;100.00;96898.94;15293213;19;20029;-49
2024/02/12 04:58:18;;;;;;;1.83;1.10;;;;;;;5.28;100.00;96902.25;15293366;19;20014;-50
2024/02/12 05:03:43;;;;;;;2.90;0.90;;;;;;;5.24;100.00;96909.75;15295785;19;20027;-52
2024/02/12 05:09:11;;;;;;;3.22;1.77;;;;;;;5.23;100.00;96910.75;15291093;19;20355;-49
2024/02/12 05:14:42;;;;;;;1.50;0.98;;;;;;;5.15;100.00;96908.91;15293567;19;20014;-50
2024/02/12 05:25:47;;;;;;;1.90;1.20;;;;;;;4.97;100.00;96914.38;15288203;19;20238;-53
2024/02/12 05:31:13;;;;;;;2.17;1.13;;;;;;;4.91;100.00;96921.19;15267047;19;20024;-59
2024/02/12 05:36:38;;;;;;;3.88;1.60;;;;;;;4.91;100.00;96929.19;15291957;19;20085;-59
2024/02/12 05:42:08;;;;;;;1.52;0.93;;;;;;;4.96;100.00;96943.91;15294892;19;20395;-55
2024/02/12 05:47:32;;;;;;;1.17;0.70;;;;;;;5.06;100.00;96957.94;15285890;19;20089;-60
2024/02/12 05:52:57;;;;;;;1.38;0.70;;;;;;;5.12;100.00;96965.28;15282837;19;20013;-55
2024/02/12 05:58:18;;;;;;;1.27;0.68;;;;;;;5.19;100.00;96979.66;15291506;19;20018;-55
2024/02/12 06:03:43;;;;;;;0.93;0.80;;;;;;;5.21;100.00;96983.03;15290714;19;20016;-56
2024/02/12 06:09:08;;;;;;;1.20;0.90;;;;;;;5.22;100.00;96990.03;15288118;19;20290;-54
2024/02/12 06:14:35;;;;;;;2.67;1.30;;;;;;;5.27;100.00;96999.38;15288612;19;20025;-57
2024/02/12 06:20:01;;;;;;;1.83;1.50;;;;;;;5.30;100.00;97012.41;15288807;19;20015;-58
2024/02/12 06:25:26;;;;;;;1.80;1.60;;;;;;;5.32;100.00;97018.41;15275936;19;20611;-57
2024/02/12 06:31:00;;;;;;;1.63;1.48;;;;;;;5.35;100.00;97020.78;15279497;19;20471;-54
2024/02/12 06:36:25;;;;;;;3.08;1.50;;;;;;;5.36;100.00;97028.59;15282502;19;20014;-57
2024/02/12 06:41:50;;;;;;;2.22;1.50;;;;;;;5.39;100.00;97044.31;15298433;19;20018;-54
2024/02/12 06:47:19;;;;;;;1.90;1.67;;;;;;;5.43;100.00;97049.31;15303943;19;20078;-54
2024/02/12 06:52:43;;;;;;;2.00;1.80;;;;;;;5.45;100.00;97056.19;15299941;19;20097;-57
2024/02/12 06:58:09;;;;;;;2.13;1.80;;;;;;;5.49;100.00;97059.34;15293577;19;20046;-56
2024/02/12 07:03:36;;;;;;;3.22;1.50;;;;;;;5.52;100.00;97069.72;15297429;19;20476;-56
2024/02/12 07:09:02;;;;;;;2.22;1.60;;;;;;;5.53;100.00;97072.22;15295937;19;20100;-60
2024/02/12 07:14:28;;;;;;;2.85;1.50;;;;;;;5.57;100.00;97078.06;15299694;19;20489;-59
2024/02/12 07:19:56;;;;;;;3.58;1.38;;;;;;;5.61;100.00;97084.78;15298615;19;20026;-55
2024/02/12 07:25:20;;;;;;;2.00;1.80;;;;;;;5.66;100.00;97098.47;15304293;19;20010;-58
2024/02/12 07:30:45;;;;;;;2.83;2.33;;;;;;;5.71;100.00;97105.97;15289578;19;20085;-54
2024/02/12 07:36:15;;;;;;;3.45;2.60;;;;;;;5.77;100.00;97123.19;15294134;19;20019;-54
2024/02/12 07:41:41;;;;;;;2.80;2.50;;;;;;;5.76;100.00;97122.38;15298714;19;20025;-57
2024/02/12 07:47:06;;;;;;;4.22;2.50;;;;;;;5.78;100.00;97123.06;15301846;19;20706;-56
2024/02/12 07:52:33;;;;;;;2.80;2.03;;;;;;;5.77;100.00;97121.38;15293482;19;20039;-58
2024/02/12 07:57:58;;;;;;;2.67;1.80;;;;;;;5.79;100.00;97129.22;15289374;19;20432;-59
2024/02/12 08:03:23;;;;;;;2.50;1.63;;;;;;;5.85;100.00;97137.44;15295487;19;20006;-55
2024/02/12 08:08:51;;;;;;;1.42;1.30;;;;;;;5.94;100.00;97151.66;15294009;19;20024;-54
2024/02/12 08:14:16;;;;;;;3.65;1.45;;;;;;;6.09;100.00;97156.41;15294177;19;20032;-57
2024/02/12 08:19:41;;;;;;;1.67;1.10;;;;;;;6.23;100.00;97166.47;15294043;19;20400;-59
2024/02/12 08:25:10;;;;;;;1.15;0.70;;;;;;;6.37;100.00;97181.03;15299458;19;20035;-60
2024/02/12 08:30:41;;;;;;;1.70;0.70;;;;;;;6.47;100.00;97184.38;15295821;19;20015;-56
2024/02/12 08:36:07;;;;;;;2.07;0.60;;;;;;;6.59;100.00;97187.53;15288121;19;20486;-56
2024/02/12 08:41:35;;;;;;;2.30;0.80;;;;;;;6.76;100.00;97203.63;15288414;19;20300;-54
2024/02/12 08:47:02;;;;;;;0.68;0.65;;;;;;;6.85;100.00;97207.13;15294800;19;20020;-60
2024/02/12 08:52:26;;;;;;;0.65;0.57;;;;;;;6.95;100.00;97207.78;15297536;19;20014;-57
2024/02/12 08:57:54;;;;;;;0.80;0.65;;;;;;;7.06;100.00;97210.13;15297505;19;20035;-55
2024/02/12 09:03:19;;;;;;;0.68;0.50;;;;;;;7.15;100.00;97216.31;15292148;19;20058;-58
2024/02/12 09:08:45;;;;;;;0.68;0.60;;;;;;;7.24;100.00;97219.81;15280499;19;20358;-55
2024/02/12 09:14:12;;;;;;;0.95;0.68;;;;;;;7.29;100.00;97217.47;15289918;19;20018;-57
2024/02/12 09:19:37;;;;;;;0.57;0.50;;;;;;;7.36;100.00;97218.44;15288226;19;20033;-57
2024/02/12 09:25:03;;;;;;;0.85;0.60;;;;;;;7.40;100.00;97214.44;15295866;19;20018;-59
2024/02/12 09:30:38;;;;;;;1.20;0.60;;;;;;;7.48;100.00;97210.03;15292696;19;20082;-59
2024/02/12 09:36:02;;;;;;;0.98;0.68;;;;;;;7.53;100.00;97208.53;15293541;19;20031;-58
2024/02/12 09:41:33;;;;;;;0.82;0.70;;;;;;;7.61;100.00;97214.88;15285636;19;20016;-53
2024/02/12 09:47:06;;;;;;;0.63;0.63;;;;;;;7.68;100.00;97214.03;15039897;19;5001341;-58
2024/02/12 09:52:34;;;;;;;1.15;0.70;;;;;;;7.76;100.00;97218.50;15293605;19;20286;-53
2024/02/12 09:57:59;;;;;;;2.17;0.70;;;;;;;7.82;100.00;97206.28;15289403;19;20093;-54
2024/02/12 10:03:26;;;;;;;1.33;0.80;;;;;;;7.86;100.00;97207.56;15294688;19;20043;-53
2024/02/12 10:08:50;;;;;;;0.82;0.80;;;;;;;7.90;100.00;97205.38;15291814;19;20082;-52
2024/02/12 10:14:15;;;;;;;0.82;0.80;;;;;;;7.93;100.00;97211.25;15285003;19;20363;-53
2024/02/12 10:19:42;;;;;;;1.10;0.85;;;;;;;7.96;100.00;97208.19;15291435;19;20010;-55
2024/02/12 10:25:07;;;;;;;1.10;1.00;;;;;;;7.98;100.00;97211.53;15292211;19;20020;-58
2024/02/12 10:30:33;;;;;;;1.20;1.10;;;;;;;7.93;100.00;97202.34;15288725;19;20090;-52
2024/02/12 10:36:03;;;;;;;1.60;1.13;;;;;;;7.83;100.00;97197.19;15286080;19;20105;-52
2024/02/12 10:41:32;;;;;;;1.77;1.05;;;;;;;7.78;100.00;97197.72;15290346;19;20090;-54
2024/02/12 10:46:56;;;;;;;1.40;1.10;;;;;;;7.76;100.00;97196.22;15290798;19;20074;-55
2024/02/12 10:52:24;;;;;;;1.63;1.25;;;;;;;7.75;100.00;97189.19;15288828;19;20118;-51
2024/02/12 10:57:50;;;;;;;2.80;1.02;;;;;;;7.75;100.00;97206.13;15292289;19;20014;-54
2024/02/12 11:03:14;;;;;;;0.90;0.70;;;;;;;7.55;100.00;97195.78;15289400;19;20021;-52
2024/02/12 11:08:44;;;;;;;0.60;0.60;;;;;;;7.28;100.00;97191.69;15032369;19;5001001;-55
2024/02/12 11:14:10;;;;;;;0.98;0.88;;;;;;;7.07;100.00;97192.22;15282442;19;20527;-55
2024/02/12 11:19:36;;;;;;;0.90;0.90;;;;;;;7.03;100.00;97197.06;15285697;19;20021;-56
2024/02/12 11:25:03;;;;;;;3.08;1.05;;;;;;;7.12;100.00;97215.81;15293335;19;20105;-55
2024/02/12 11:30:39;;;;;;;2.20;1.15;;;;;;;7.25;100.00;97230.38;15299767;19;20022;-56
2024/02/12 11:36:10;;;;;;;1.20;0.85;;;;;;;7.38;100.00;97258.47;15299604;19;20014;-53
2024/02/12 11:41:38;;;;;;;1.40;0.90;;;;;;;7.46;100.00;97266.50;15298524;19;20472;-56
2024/02/12 11:47:04;;;;;;;3.08;1.20;;;;;;;7.56;100.00;97271.69;15295601;19;20019;-52
2024/02/12 11:52:31;;;;;;;1.20;1.10;;;;;;;7.64;100.00;97268.16;15296882;19;20018;-53
2024/02/12 11:58:00;;;;;;;1.67;1.00;;;;;;;7.80;100.00;97278.00;15301129;19;20078;-55
2024/02/12 12:03:24;;;;;;;2.22;1.30;;;;;;;7.82;100.00;97267.94;15302754;19;20527;-55
2024/02/12 12:08:50;;;;;;;1.60;1.50;;;;;;;7.76;100.00;97288.19;15299636;19;20029;-54
2024/02/12 12:14:18;;;;;;;2.08;1.70;;;;;;;7.75;100.00;97285.69;15304168;19;20333;-55
2024/02/12 12:19:44;;;;;;;3.05;2.20;;;;;;;7.70;100.00;97294.25;15335597;19;20010;-59
2024/02/12 12:25:09;;;;;;;2.45;2.20;;;;;;;7.73;100.00;97304.66;15300461;19;20409;-58
2024/02/12 12:30:37;;;;;;;2.45;2.20;;;;;;;7.76;100.00;97322.22;15292280;19;20082;-58
2024/02/12 12:36:03;;;;;;;2.80;2.45;;;;;;;7.84;100.00;97311.47;15293966;19;20017;-58
2024/02/12 12:41:29;;;;;;;2.78;2.17;;;;;;;7.93;100.00;97318.53;15295462;19;20364;-56
2024/02/12 12:46:57;;;;;;;2.92;2.30;;;;;;;7.95;100.00;97311.13;15298485;19;20035;-57
2024/02/12 12:52:22;;;;;;;2.92;2.63;;;;;;;7.96;100.00;97296.69;15293282;19;20467;-56
2024/02/12 12:57:49;;;;;;;2.63;2.42;;;;;;;8.01;100.00;97297.03;15296542;19;20054;-58
2024/02/12 13:03:17;;;;;;;2.67;2.33;;;;;;;8.01;100.00;97302.41;15296519;19;20028;-58
2024/02/12 13:08:42;;;;;;;2.63;2.42;;;;;;;8.07;100.00;97300.88;15295744;19;20050;-56
2024/02/12 13:14:07;;;;;;;2.88;2.38;;;;;;;8.13;100.00;97312.75;15293603;19;20081;-57
2024/02/12 13:19:36;;;;;;;2.90;2.53;;;;;;;8.16;100.00;97302.50;15289074;19;20042;-56
2024/02/12 13:25:01;;;;;;;3.05;2.30;;;;;;;8.20;100.00;97307.53;15290232;19;20035;-53
2024/02/12 13:30:29;;;;;;;2.63;2.42;;;;;;;8.41;100.00;97304.25;15289146;19;20022;-54
2024/02/12 13:35:57;;;;;;;2.28;2.00;;;;;;;8.63;100.00;97291.91;15291972;19;20010;-55
2024/02/12 13:41:21;;;;;;;3.72;2.28;;;;;;;8.87;100.00;97284.72;15291416;19;20077;-54
2024/02/12 13:46:46;;;;;;;4.38;2.60;;;;;;;8.96;100.00;97277.44;15292461;19;20480;-54
2024/02/12 13:52:16;;;;;;;3.65;2.55;;;;;;;8.82;100.00;97274.50;15293817;19;20018;-56
2024/02/12 13:57:41;;;;;;;3.10;2.80;;;;;;;8.69;100.00;97258.16;15287418;19;20022;-57
2024/02/12 14:03:06;;;;;;;6.80;3.20;;;;;;;8.54;100.00;97242.78;15290651;19;20018;-55
2024/02/12 14:08:37;;;;;;;3.30;2.80;;;;;;;8.42;100.00;97234.28;15291548;19;20543;-54
2024/02/12 14:14:02;;;;;;;3.23;2.63;;;;;;;8.36;100.00;97234.16;15289504;19;20079;-55
2024/02/12 14:19:27;;;;;;;4.68;3.10;;;;;;;8.31;100.00;97245.44;15284535;19;20266;-55
2024/02/12 14:24:54;;;;;;;4.80;3.30;;;;;;;8.18;100.00;97256.72;15290680;19;20010;-55
2024/02/12 14:30:28;;;;;;;2.38;1.40;;;;;;;7.78;100.00;97263.91;15284759;19;20078;-57
2024/02/12 14:35:53;;;;;;;2.05;1.20;;;;;;;7.30;100.00;97267.34;15288106;19;20089;-51
2024/02/12 14:41:21;;;;;;;1.92;0.90;;;;;;;7.09;100.00;97282.13;15283197;19;20023;-55
2024/02/12 14:46:48;;;;;;;0.98;0.88;;;;;;;7.05;100.00;97298.69;15290334;19;20089;-56
2024/02/12 14:52:14;;;;;;;3.00;1.30;;;;;;;7.05;100.00;97312.06;15290611;19;20466;-58
2024/02/12 14:57:42;;;;;;;1.88;1.50;;;;;;;7.07;100.00;97326.97;15287903;19;20014;-54
2024/02/12 15:03:07;;;;;;;1.88;1.50;;;;;;;7.12;100.00;97336.31;15297778;19;20097;-55
2024/02/12 15:08:33;;;;;;;2.55;1.58;;;;;;;7.13;100.00;97343.34;15301577;19;20028;-55
2024/02/12 15:14:01;;;;;;;1.75;1.63;;;;;;;7.22;100.00;97353.09;15303811;19;20020;-52
2024/02/12 15:19:22;;;;;;;2.88;1.63;;;;;;;7.27;100.00;97369.50;15299349;19;20022;-53
2024/02/12 15:24:48;;;;;;;1.85;1.70;;;;;;;7.48;100.00;97371.69;15295449;19;20015;-53
2024/02/12 15:30:16;;;;;;;1.70;1.60;;;;;;;7.70;100.00;97378.19;15298430;19;20357;-54
2024/02/12 15:35:41;;;;;;;2.20;1.77;;;;;;;7.89;100.00;97386.03;15293877;19;20014;-52
2024/02/12 15:41:06;;;;;;;2.72;1.92;;;;;;;7.97;100.00;97396.78;15290357;19;20766;-52
2024/02/12 15:46:35;;;;;;;2.58;1.90;;;;;;;7.80;100.00;97401.31;15300287;19;20050;-54
2024/02/12 15:52:00;;;;;;;3.22;1.75;;;;;;;7.59;100.00;97421.41;15292367;19;20702;-53
2024/02/12 15:57:28;;;;;;;2.35;1.90;;;;;;;7.31;100.00;97428.94;15288643;19;20014;-53
2024/02/12 16:02:56;;;;;;;2.47;2.05;;;;;;;7.06;100.00;97432.41;15296815;19;20037;-53
2024/02/12 16:08:21;;;;;;;3.92;2.30;;;;;;;6.90;100.00;97451.09;15294785;19;20337;-57
2024/02/12 16:13:49;;;;;;;2.20;2.00;;;;;;;6.76;100.00;97471.28;15296091;19;20082;-53
2024/02/12 16:19:16;;;;;;;4.32;2.80;;;;;;;6.65;100.00;97477.75;15294814;19;20037;-57
2024/02/12 16:24:43;;;;;;;3.63;3.05;;;;;;;6.54;100.00;97492.25;15296297;19;20021;-52
2024/02/12 16:30:13;;;;;;;4.22;3.45;;;;;;;6.42;100.00;97499.69;15287022;19;20029;-54
2024/02/12 16:35:41;;;;;;;5.40;3.70;;;;;;;6.31;100.00;97513.34;15294050;19;20025;-56
2024/02/12 16:41:06;;;;;;;6.07;4.72;;;;;;;6.18;100.00;97527.13;15291495;19;20035;-51
2024/02/12 16:46:30;;;;;;;5.70;5.03;;;;;;;6.10;100.00;97537.78;15289022;19;20023;-56
2024/02/12 16:51:58;;;;;;;5.07;4.45;;;;;;;6.00;100.00;97554.72;15292415;19;20094;-52
2024/02/12 16:57:22;;;;;;;4.78;4.28;;;;;;;5.94;100.00;97565.19;15287017;19;20043;-51
2024/02/12 17:02:47;;;;;;;4.90;4.38;;;;;;;5.84;100.00;97570.59;15292305;19;20471;-52
2024/02/12 17:08:15;;;;;;;5.97;4.63;;;;;;;5.77;100.00;97591.75;15287559;19;20064;-55
2024/02/12 17:13:40;;;;;;;5.70;4.97;;;;;;;5.66;100.00;97589.28;15292477;19;20082;-52
2024/02/12 17:19:05;;;;;;;5.38;4.88;;;;;;;5.57;100.00;97606.22;15287039;19;20039;-55
2024/02/12 17:24:32;;;;;;;6.68;4.28;;;;;;;5.49;100.00;97607.78;15292741;19;20010;-55
2024/02/12 17:29:57;;;;;;;4.68;3.90;;;;;;;5.44;100.00;97622.59;15283341;19;20010;-56
2024/02/12 17:35:22;;;;;;;4.72;3.70;;;;;;;5.38;100.00;97626.69;15294348;19;20535;-55
2024/02/12 17:40:49;;;;;;;6.18;4.63;;;;;;;5.36;100.00;97642.03;15284194;19;20014;-55
2024/02/12 17:46:17;;;;;;;7.18;5.82;;;;;;;5.33;100.00;97647.69;15282914;19;20082;-57
2024/02/12 17:51:41;;;;;;;7.93;5.80;;;;;;;5.30;100.00;97664.00;15288173;19;20014;-54
2024/02/12 17:57:10;;;;;;;9.30;7.20;;;;;;;5.30;100.00;97675.50;15281284;19;20018;-57
2024/02/12 18:02:34;;;;;;;7.07;6.35;;;;;;;5.32;100.00;97694.91;15287966;19;20081;-58
2024/02/12 18:07:59;;;;;;;5.65;4.88;;;;;;;5.31;100.00;97698.56;15284125;19;20015;-54
2024/02/12 18:13:27;;;;;;;6.60;4.78;;;;;;;5.34;100.00;97705.47;15284382;19;20014;-58
2024/02/12 18:18:52;;;;;;;5.65;4.50;;;;;;;5.36;100.00;97720.34;15283436;19;20025;-54
2024/02/12 18:24:17;;;;;;;5.47;4.57;;;;;;;5.38;100.00;97730.88;15289300;19;20476;-56
2024/02/12 18:29:45;;;;;;;5.50;4.78;;;;;;;5.38;100.00;97747.75;15287569;19;20411;-55
2024/02/12 18:35:10;;;;;;;5.05;4.38;;;;;;;5.41;100.00;97746.59;15305050;19;20010;-56
2024/02/12 18:40:35;;;;;;;4.60;4.20;;;;;;;5.42;100.00;97767.00;15309321;19;20838;-55
2024/02/12 18:46:04;;;;;;;5.68;5.18;;;;;;;5.33;100.00;97791.91;15307202;19;20042;-58
2024/02/12 18:51:30;;;;;;;5.53;4.80;;;;;;;5.35;100.00;97796.13;15309450;19;20027;-57
2024/02/12 18:56:55;;;;;;;4.75;4.25;;;;;;;5.52;100.00;97815.91;15314793;19;20014;-58
2024/02/12 19:02:22;;;;;;;8.25;5.28;;;;;;;5.42;100.00;97807.06;15318114;19;20029;-55
2024/02/12 19:07:48;;;;;;;6.03;5.10;;;;;;;5.20;100.00;97803.72;15315164;19;20011;-59
2024/02/12 19:13:13;;;;;;;8.32;6.00;;;;;;;5.06;100.00;97815.66;15291519;19;20089;-58
2024/02/12 19:18:42;;;;;;;8.35;7.22;;;;;;;5.03;100.00;97839.13;15308198;19;20014;-57
2024/02/12 19:24:10;;;;;;;10.02;6.78;;;;;;;4.98;100.00;97842.22;15318816;19;20097;-58
2024/02/12 19:29:34;;;;;;;9.93;5.88;;;;;;;4.96;100.00;97859.38;15316062;19;20022;-58
2024/02/12 19:35:01;;;;;;;7.18;5.22;;;;;;;4.92;100.00;97867.66;15316614;19;20022;-58
2024/02/12 19:40:32;;;;;;;6.70;5.60;;;;;;;4.87;100.00;97861.91;15316128;19;20042;-57
2024/02/12 19:45:57;;;;;;;7.40;6.60;;;;;;;4.88;100.00;97886.75;15310939;19;20040;-59
2024/02/12 19:51:25;;;;;;;6.40;5.80;;;;;;;4.85;100.00;97898.56;15289521;19;20011;-53
2024/02/12 19:56:49;;;;;;;7.75;5.80;;;;;;;4.81;100.00;97910.50;15291446;19;20348;-57
2024/02/12 20:02:15;;;;;;;6.50;5.30;;;;;;;4.79;100.00;97923.13;15295538;19;20426;-56
2024/02/12 20:07:42;;;;;;;5.40;4.90;;;;;;;4.77;100.00;97941.09;15292533;19;20098;-55
2024/02/12 20:13:08;;;;;;;5.15;4.60;;;;;;;4.74;100.00;97954.72;15302238;19;20499;-57
2024/02/12 20:18:33;;;;;;;5.88;4.43;;;;;;;4.69;100.00;97967.63;15287547;19;20424;-56
2024/02/12 20:24:02;;;;;;;6.47;5.20;;;;;;;4.68;100.00;97968.59;15292781;19;20078;-54
2024/02/12 20:29:28;;;;;;;6.15;5.07;;;;;;;4.66;100.00;97975.88;15286022;19;20029;-54
2024/02/12 20:34:52;;;;;;;5.88;4.93;;;;;;;4.63;100.00;97982.34;15305603;19;20002;-56
2024/02/12 20:40:20;;;;;;;5.72;4.97;;;;;;;4.60;100.00;98004.81;15303312;19;20098;-54
2024/02/12 20:45:45;;;;;;;6.93;5.40;;;;;;;4.57;100.00;98013.06;15312335;19;20496;-57
2024/02/12 20:51:11;;;;;;;8.05;6.80;;;;;;;4.51;100.00;98008.28;15301933;19;20467;-57
2024/02/12 20:56:42;;;;;;;8.43;6.75;;;;;;;4.46;100.00;98014.03;15297801;19;20011;-55
2024/02/12 21:02:10;;;;;;;8.02;7.10;;;;;;;4.42;100.00;98017.06;15306449;19;20476;-56
2024/02/12 21:07:38;;;;;;;8.30;7.35;;;;;;;4.39;100.00;98022.69;15296603;19;20017;-55
2024/02/12 21:13:08;;;;;;;7.72;6.85;;;;;;;4.39;100.00;98038.69;15297521;19;20025;-51
2024/02/12 21:18:33;;;;;;;12.40;7.57;;;;;;;4.40;100.00;98035.03;15295538;19;20035;-50
2024/02/12 21:23:58;;;;;;;7.55;6.63;;;;;;;4.47;100.00;98052.19;15294594;19;20418;-54
2024/02/12 21:29:26;;;;;;;7.30;6.40;;;;;;;4.47;100.00;98041.53;15287543;19;20039;-54
2024/02/12 21:34:51;;;;;;;7.82;6.50;;;;;;;4.42;100.00;98060.59;15294808;19;20839;-50
2024/02/12 21:40:20;;;;;;;8.18;6.82;;;;;;;4.37;100.00;98072.63;15283289;19;20018;-52
2024/02/12 21:45:48;;;;;;;6.95;6.20;;;;;;;4.44;100.00;98085.31;15283822;19;20504;-54
2024/02/12 21:51:13;;;;;;;8.00;6.07;;;;;;;4.42;100.00;98089.06;15279191;19;20017;-52
2024/02/12 21:56:38;;;;;;;7.40;6.20;;;;;;;4.36;100.00;98092.28;15285741;19;20010;-52
2024/02/12 22:02:07;;;;;;;7.28;5.85;;;;;;;4.32;100.00;98100.53;15285659;19;20021;-52
2024/02/12 22:07:33;;;;;;;7.80;6.40;;;;;;;4.28;100.00;98107.13;15291571;19;20031;-52
2024/02/12 22:12:59;;;;;;;7.47;6.68;;;;;;;4.31;100.00;98112.16;15287355;19;20741;-52
2024/02/12 22:18:29;;;;;;;7.32;6.15;;;;;;;4.46;100.00;98117.19;15289693;19;20010;-52
2024/02/12 22:23:54;;;;;;;8.02;6.75;;;;;;;4.55;100.00;98137.75;15288783;19;20018;-51
2024/02/12 22:29:19;;;;;;;8.05;6.40;;;;;;;4.61;100.00;98147.91;15280984;19;20021;-51
2024/02/12 22:34:46;;;;;;;7.07;6.25;;;;;;;4.67;100.00;98145.69;15286925;19;20037;-54
2024/02/12 22:40:12;;;;;;;6.75;6.13;;;;;;;4.68;100.00;98158.91;15280796;19;20074;-51
2024/02/12 22:45:36;;;;;;;7.47;6.75;;;;;;;4.68;100.00;98172.25;15291543;19;20015;-50
2024/02/12 22:51:03;;;;;;;11.57;8.00;;;;;;;4.66;100.00;98179.53;15280534;19;20363;-50
2024/02/12 22:56:28;;;;;;;10.95;8.73;;;;;;;4.66;100.00;98189.34;15281945;19;20018;-53
2024/02/12 23:01:54;;;;;;;10.82;9.60;;;;;;;4.66;100.00;98190.22;15279887;19;20094;-50
2024/02/12 23:07:23;;;;;;;9.15;8.18;;;;;;;4.69;100.00;98205.09;15288304;19;20078;-56
2024/02/12 23:12:49;;;;;;;11.23;8.98;;;;;;;4.68;100.00;98208.75;15286806;19;20019;-53
2024/02/12 23:18:14;;;;;;;9.07;7.50;;;;;;;4.66;100.00;98211.56;15287906;19;20027;-51
2024/02/12 23:23:42;;;;;;;8.18;6.97;;;;;;;4.72;100.00;98224.38;15298922;19;20011;-55
2024/02/12 23:29:08;;;;;;;8.02;6.15;;;;;;;4.77;100.00;98224.84;15292565;19;20018;-79
2024/02/12 23:34:34;;;;;;;7.05;6.05;;;;;;;4.80;100.00;98239.75;15298086;19;20741;-79
2024/02/12 23:40:05;;;;;;;7.35;5.68;;;;;;;4.78;100.00;98244.34;15295587;19;20050;-79
2024/02/12 23:45:32;;;;;;;8.20;5.50;;;;;;;4.78;100.00;98249.69;15312800;19;20732;-79
2024/02/12 23:50:56;;;;;;;4.22;3.85;;;;;;;4.81;100.00;98253.94;15302762;19;20262;-80
2024/02/12 23:56:24;;;;;;;5.55;3.90;;;;;;;4.81;100.00;98254.78;15302089;19;20010;-80
